createdAt,value
2019-05-02T00:01:17.803Z,94525.11
2019-05-02T00:03:43.805Z,94524.69
2019-05-02T00:06:09.820Z,94518.13
2019-05-02T00:08:35.954Z,94517.20
2019-05-02T00:11:01.943Z,94519.45
2019-05-02T00:13:27.974Z,94519.87
2019-05-02T00:15:53.959Z,94514.66
2019-05-02T00:18:19.983Z,94520.78
2019-05-02T00:20:45.983Z,94510.66
2019-05-02T00:23:11.998Z,94515.99
2019-05-02T00:25:37.995Z,94515.58
2019-05-02T00:28:07.716Z,94520.50
2019-05-02T00:30:34.498Z,94519.17
2019-05-02T00:32:58.303Z,94521.83
2019-05-02T00:35:22.029Z,94522.34
2019-05-02T00:37:48.023Z,94520.63
2019-05-02T00:40:14.045Z,94528.63
2019-05-02T00:42:40.040Z,94528.63
2019-05-02T00:45:06.060Z,94526.47
2019-05-02T00:47:32.082Z,94530.05
2019-05-02T00:49:58.076Z,94532.72
2019-05-02T00:52:24.104Z,94531.39
2019-05-02T00:54:50.103Z,94537.23
2019-05-02T00:57:19.907Z,94533.64
2019-05-02T00:59:42.417Z,94530.98
2019-05-02T01:02:08.124Z,94532.02
2019-05-02T01:04:34.146Z,94532.44
2019-05-02T01:07:00.159Z,94525.36
2019-05-02T01:09:26.155Z,94534.69
2019-05-02T01:11:52.175Z,94533.86
2019-05-02T01:14:18.176Z,94530.78
2019-05-02T01:16:44.203Z,94527.61
2019-05-02T01:19:12.150Z,94532.66
2019-05-02T01:21:38.799Z,94532.53
2019-05-02T01:24:02.998Z,94535.73
2019-05-02T01:26:29.320Z,94529.16
2019-05-02T01:28:55.635Z,94530.08
2019-05-02T01:31:20.353Z,94528.24
2019-05-02T01:33:46.264Z,94531.41
2019-05-02T01:36:12.312Z,94529.29
2019-05-02T01:38:38.327Z,94535.41
2019-05-02T01:41:04.323Z,94530.21
2019-05-02T01:43:30.350Z,94529.80
2019-05-02T01:45:56.363Z,94530.63
2019-05-02T01:48:22.372Z,94530.21
2019-05-02T01:50:48.396Z,94528.47
2019-05-02T01:53:14.424Z,94522.30
2019-05-02T01:55:40.444Z,94527.22
2019-05-02T01:58:06.440Z,94527.64
2019-05-02T02:00:32.464Z,94532.97
2019-05-02T02:02:58.459Z,94528.17
2019-05-02T02:05:27.575Z,94532.56
2019-05-02T02:07:50.787Z,94527.64
2019-05-02T02:10:19.768Z,94527.77
2019-05-02T02:12:56.479Z,94530.43
2019-05-02T02:15:08.616Z,94525.09
2019-05-02T02:17:34.654Z,94526.02
2019-05-02T02:20:00.715Z,94528.69
2019-05-02T02:22:26.702Z,94534.43
2019-05-02T02:24:56.032Z,94529.61
2019-05-02T02:27:19.978Z,94525.60
2019-05-02T02:29:45.371Z,94526.11
2019-05-02T02:32:10.746Z,94526.11
2019-05-02T02:34:36.749Z,94523.45
2019-05-02T02:37:05.520Z,94530.52
2019-05-02T02:39:28.795Z,94525.31
2019-05-02T02:41:54.816Z,94532.39
2019-05-02T02:44:20.849Z,94526.23
2019-05-02T02:46:46.850Z,94523.98
2019-05-02T02:49:13.844Z,94532.91
2019-05-02T02:51:38.885Z,94522.33
2019-05-02T02:54:05.747Z,94530.33
2019-05-02T02:56:34.393Z,94531.66
2019-05-02T02:58:56.932Z,94529.00
2019-05-02T03:01:29.065Z,94536.20
2019-05-02T03:03:48.927Z,94528.71
2019-05-02T03:06:14.938Z,94543.79
2019-05-02T03:08:46.064Z,94542.45
2019-05-02T03:11:06.992Z,94543.37
2019-05-02T03:13:50.458Z,94538.97
2019-05-02T03:16:00.469Z,94545.22
2019-05-02T03:18:27.124Z,94543.88
2019-05-02T03:20:51.081Z,94541.22
2019-05-02T03:23:22.294Z,94544.42
2019-05-02T03:25:50.411Z,94549.76
2019-05-02T03:28:17.843Z,94552.01
2019-05-02T03:30:37.260Z,94554.67
2019-05-02T03:33:10.396Z,94555.47
2019-05-02T03:35:41.878Z,94550.27
2019-05-02T03:37:53.293Z,94553.44
2019-05-02T03:40:19.228Z,94561.44
2019-05-02T03:42:47.735Z,94565.44
2019-05-02T03:45:11.282Z,94564.64
2019-05-02T03:47:43.627Z,94572.09
2019-05-02T03:50:03.296Z,94574.35
2019-05-02T03:52:29.321Z,94578.26
2019-05-02T03:54:55.327Z,94577.62
2019-05-02T03:57:32.303Z,94572.80
2019-05-02T03:59:47.361Z,94578.95
2019-05-02T04:02:14.027Z,94580.30
2019-05-02T04:04:39.376Z,94586.03
2019-05-02T04:07:05.379Z,94590.03
2019-05-02T04:09:32.052Z,94591.88
2019-05-02T04:11:57.425Z,94593.21
2019-05-02T04:14:36.766Z,94594.13
2019-05-02T04:16:55.298Z,94599.88
2019-05-02T04:19:15.542Z,94600.80
2019-05-02T04:21:41.553Z,94606.95
2019-05-02T04:24:13.655Z,94604.41
2019-05-02T04:26:33.583Z,94603.88
2019-05-02T04:28:59.608Z,94606.13
2019-05-02T04:31:31.592Z,94608.41
2019-05-02T04:33:51.637Z,94611.08
2019-05-02T04:36:18.006Z,94603.08
2019-05-02T04:38:47.930Z,94605.63
2019-05-02T04:41:09.698Z,94610.03
2019-05-02T04:43:43.157Z,94613.11
2019-05-02T04:46:01.753Z,94612.07
2019-05-02T04:48:28.448Z,94611.24
2019-05-02T04:50:59.711Z,94608.98
2019-05-02T04:53:25.807Z,94612.48
2019-05-02T04:55:52.116Z,94619.05
2019-05-02T04:58:24.345Z,94618.73
2019-05-02T05:00:39.252Z,94620.77
2019-05-02T05:03:07.238Z,94625.72
2019-05-02T05:05:31.281Z,94615.15
2019-05-02T05:07:58.471Z,94617.31
2019-05-02T05:10:21.985Z,94618.23
2019-05-02T05:12:48.116Z,94612.48
2019-05-02T05:15:33.748Z,94619.15
2019-05-02T05:17:40.050Z,94622.73
2019-05-02T05:20:14.126Z,94624.58
2019-05-02T05:22:36.475Z,94625.53
2019-05-02T05:24:58.297Z,94632.20
2019-05-02T05:27:24.137Z,94633.11
2019-05-02T05:29:53.651Z,94625.11
2019-05-02T05:32:17.919Z,94631.36
2019-05-02T05:34:42.157Z,94630.54
2019-05-02T05:37:09.425Z,94639.08
2019-05-02T05:39:34.202Z,94635.58
2019-05-02T05:42:00.212Z,94642.66
2019-05-02T05:44:30.547Z,94648.91
2019-05-02T05:46:54.069Z,94646.25
2019-05-02T05:49:21.781Z,94643.30
2019-05-02T05:51:47.462Z,94647.80
2019-05-02T05:54:12.134Z,94644.22
2019-05-02T05:56:42.953Z,94649.64
2019-05-02T05:59:04.142Z,94643.52
2019-05-02T06:01:34.437Z,94651.89
2019-05-02T06:03:58.010Z,94646.17
2019-05-02T06:06:23.195Z,94644.52
2019-05-02T06:08:49.185Z,94651.61
2019-05-02T06:11:14.797Z,94653.06
2019-05-02T06:13:42.891Z,94659.73
2019-05-02T06:16:10.511Z,94655.73
2019-05-02T06:18:36.232Z,94661.98
2019-05-02T06:20:58.507Z,94658.98
2019-05-02T06:23:24.297Z,94657.66
2019-05-02T06:25:50.318Z,94665.27
2019-05-02T06:28:16.319Z,94659.11
2019-05-02T06:30:42.333Z,94648.45
2019-05-02T06:33:08.349Z,94651.75
2019-05-02T06:35:34.390Z,94654.70
2019-05-02T06:38:00.407Z,94657.49
2019-05-02T06:40:26.398Z,94650.00
2019-05-02T06:42:52.421Z,94653.17
2019-05-02T06:45:18.420Z,94655.84
2019-05-02T06:47:44.450Z,94655.05
2019-05-02T06:50:10.442Z,94663.05
2019-05-02T06:52:36.479Z,94660.88
2019-05-02T06:55:02.484Z,94655.55
2019-05-02T06:57:28.483Z,94656.97
2019-05-02T06:59:56.341Z,94664.47
2019-05-02T07:02:20.512Z,94659.26
2019-05-02T07:04:46.552Z,94660.59
2019-05-02T07:07:13.337Z,94666.02
2019-05-02T07:09:40.786Z,94664.27
2019-05-02T07:12:04.562Z,94669.51
2019-05-02T07:14:30.583Z,94666.14
2019-05-02T07:16:56.629Z,94666.52
2019-05-02T07:19:27.332Z,94668.90
2019-05-02T07:21:53.002Z,94663.86
2019-05-02T07:24:14.698Z,94666.64
2019-05-02T07:26:40.699Z,94666.64
2019-05-02T07:29:06.724Z,94671.15
2019-05-02T07:31:32.719Z,94668.61
2019-05-02T07:33:58.746Z,94669.53
2019-05-02T07:36:24.759Z,94673.02
2019-05-02T07:38:50.778Z,94664.61
2019-05-02T07:41:16.802Z,94669.11
2019-05-02T07:43:42.882Z,94672.19
2019-05-02T07:46:08.908Z,94670.45
2019-05-02T07:48:34.916Z,94669.53
2019-05-02T07:51:00.938Z,94670.95
2019-05-02T07:53:26.973Z,94667.49
2019-05-02T07:55:52.969Z,94670.95
2019-05-02T07:58:18.995Z,94665.23
2019-05-02T08:00:44.986Z,94667.08
2019-05-02T08:03:11.037Z,94660.41
2019-05-02T08:05:37.038Z,94668.91
2019-05-02T08:08:03.096Z,94664.92
2019-05-02T08:10:29.112Z,94665.84
2019-05-02T08:12:55.170Z,94666.78
2019-05-02T08:15:24.148Z,94669.45
2019-05-02T08:17:53.373Z,94668.50
2019-05-02T08:20:18.477Z,94671.17
2019-05-02T08:22:39.342Z,94669.04
2019-05-02T08:25:10.442Z,94667.70
2019-05-02T08:27:34.546Z,94665.55
2019-05-02T08:30:00.055Z,94669.96
2019-05-02T08:32:23.436Z,94662.38
2019-05-02T08:34:52.012Z,94669.96
2019-05-02T08:37:15.474Z,94669.04
2019-05-02T08:39:41.555Z,94670.05
2019-05-02T08:42:07.578Z,94668.72
2019-05-02T08:44:33.595Z,94668.72
2019-05-02T08:46:59.623Z,94666.97
2019-05-02T08:49:25.638Z,94667.51
2019-05-02T08:51:51.667Z,94674.59
2019-05-02T08:54:17.672Z,94670.97
2019-05-02T08:56:43.689Z,94670.17
2019-05-02T08:59:09.730Z,94664.31
2019-05-02T09:01:35.726Z,94666.18
2019-05-02T09:04:01.703Z,94666.18
2019-05-02T09:06:27.722Z,94668.84
2019-05-02T09:08:53.720Z,94670.97
2019-05-02T09:11:19.752Z,94664.31
2019-05-02T09:13:46.059Z,94659.92
2019-05-02T09:16:12.131Z,94655.52
2019-05-02T09:18:42.389Z,94654.27
2019-05-02T09:21:03.862Z,94666.69
2019-05-02T09:23:34.976Z,94666.27
2019-05-02T09:25:55.886Z,94656.94
2019-05-02T09:28:25.385Z,94659.19
2019-05-02T09:30:52.307Z,94666.81
2019-05-02T09:33:16.184Z,94657.06
2019-05-02T09:35:42.302Z,94662.39
2019-05-02T09:38:08.194Z,94653.98
2019-05-02T09:40:34.196Z,94661.06
2019-05-02T09:43:02.753Z,94657.16
2019-05-02T09:45:27.882Z,94663.02
2019-05-02T09:48:01.311Z,94663.95
2019-05-02T09:50:20.553Z,94661.69
2019-05-02T09:52:44.472Z,94657.78
2019-05-02T09:55:12.209Z,94658.08
2019-05-02T09:57:36.554Z,94655.53
2019-05-02T10:00:02.579Z,94650.08
2019-05-02T10:02:28.633Z,94649.16
2019-05-02T10:04:54.657Z,94646.49
2019-05-02T10:07:22.273Z,94643.41
2019-05-02T10:09:46.666Z,94641.28
2019-05-02T10:12:12.736Z,94642.50
2019-05-02T10:14:38.757Z,94650.91
2019-05-02T10:17:07.173Z,94652.36
2019-05-02T10:19:32.693Z,94646.08
2019-05-02T10:21:56.800Z,94651.83
2019-05-02T10:24:22.833Z,94647.53
2019-05-02T10:26:48.827Z,94649.28
2019-05-02T10:29:14.860Z,94649.98
2019-05-02T10:31:42.144Z,94648.66
2019-05-02T10:34:08.555Z,94641.58
2019-05-02T10:36:32.926Z,94645.86
2019-05-02T10:38:59.426Z,94645.86
2019-05-02T10:41:24.960Z,94641.58
2019-05-02T10:43:53.935Z,94635.33
2019-05-02T10:46:16.972Z,94626.41
2019-05-02T10:48:42.977Z,94614.83
2019-05-02T10:51:08.990Z,94618.41
2019-05-02T10:53:35.009Z,94623.75
2019-05-02T10:56:02.686Z,94607.84
2019-05-02T10:58:31.986Z,94622.09
2019-05-02T11:00:53.289Z,94619.97
2019-05-02T11:03:19.453Z,94618.63
2019-05-02T11:05:45.451Z,94618.72
2019-05-02T11:08:12.026Z,94622.72
2019-05-02T11:10:37.484Z,94624.05
2019-05-02T11:13:03.483Z,94632.59
2019-05-02T11:15:29.510Z,94624.17
2019-05-02T11:17:55.497Z,94624.17
2019-05-02T11:20:22.477Z,94613.10
2019-05-02T11:22:47.515Z,94627.34
2019-05-02T11:25:13.551Z,94628.68
2019-05-02T11:27:39.567Z,94622.52
2019-05-02T11:30:05.725Z,94613.73
2019-05-02T11:32:32.681Z,94610.15
2019-05-02T11:34:57.781Z,94615.06
2019-05-02T11:37:23.778Z,94613.32
2019-05-02T11:39:52.343Z,94600.91
2019-05-02T11:42:17.744Z,94602.75
2019-05-02T11:44:41.902Z,94600.91
2019-05-02T11:47:07.807Z,94607.16
2019-05-02T11:49:33.810Z,94610.75
2019-05-02T11:52:03.759Z,94609.03
2019-05-02T11:54:27.725Z,94601.95
2019-05-02T11:56:53.607Z,94605.55
2019-05-02T11:59:22.551Z,94601.42
2019-05-02T12:01:56.212Z,94595.58
2019-05-02T12:04:14.953Z,94590.37
2019-05-02T12:06:35.938Z,94584.22
2019-05-02T12:09:02.154Z,94587.30
2019-05-02T12:11:27.960Z,94586.38
2019-05-02T12:13:56.912Z,94587.71
2019-05-02T12:16:20.012Z,94592.41
2019-05-02T12:18:46.026Z,94587.17
2019-05-02T12:21:12.040Z,94579.59
2019-05-02T12:23:38.100Z,94585.43
2019-05-02T12:26:04.102Z,94576.09
2019-05-02T12:28:30.103Z,94574.77
2019-05-02T12:30:56.127Z,94573.84
2019-05-02T12:33:22.355Z,94580.63
2019-05-02T12:35:48.143Z,94573.05
2019-05-02T12:38:14.159Z,94566.89
2019-05-02T12:40:42.040Z,94565.56
2019-05-02T12:43:06.259Z,94562.90
2019-05-02T12:45:33.675Z,94566.98
2019-05-02T12:47:58.254Z,94559.82
2019-05-02T12:50:24.276Z,94566.89
2019-05-02T12:52:52.052Z,94571.81
2019-05-02T12:55:16.298Z,94570.48
2019-05-02T12:57:42.883Z,94567.94
2019-05-02T13:00:08.310Z,94564.73
2019-05-02T13:02:34.307Z,94562.20
2019-05-02T13:05:02.318Z,94579.52
2019-05-02T13:07:26.342Z,94559.95
2019-05-02T13:09:52.877Z,94558.20
2019-05-02T13:12:18.377Z,94557.78
2019-05-02T13:14:44.375Z,94567.11
2019-05-02T13:17:11.985Z,94556.45
2019-05-02T13:19:40.928Z,94560.33
2019-05-02T13:22:02.658Z,94563.72
2019-05-02T13:24:29.471Z,94564.11
2019-05-02T13:26:59.538Z,94550.18
2019-05-02T13:29:22.444Z,94552.44
2019-05-02T13:31:46.863Z,94554.18
2019-05-02T13:34:14.816Z,94558.97
2019-05-02T13:36:38.881Z,94558.97
2019-05-02T13:39:04.892Z,94549.64
2019-05-02T13:41:32.165Z,94549.14
2019-05-02T13:43:57.084Z,94547.80
2019-05-02T13:46:23.100Z,94548.22
2019-05-02T13:48:49.101Z,94541.23
2019-05-02T13:51:15.123Z,94536.92
2019-05-02T13:53:42.544Z,94546.95
2019-05-02T13:56:07.169Z,94536.20
2019-05-02T13:58:33.287Z,94540.89
2019-05-02T14:00:59.234Z,94542.32
2019-05-02T14:03:25.250Z,94541.69
2019-05-02T14:05:53.705Z,94542.52
2019-05-02T14:08:17.274Z,94537.31
2019-05-02T14:10:43.303Z,94531.56
2019-05-02T14:13:09.318Z,94540.27
2019-05-02T14:15:35.338Z,94531.98
2019-05-02T14:18:02.533Z,94535.22
2019-05-02T14:20:27.457Z,94534.02
2019-05-02T14:22:53.473Z,94531.77
2019-05-02T14:25:19.488Z,94523.64
2019-05-02T14:27:47.019Z,94524.18
2019-05-02T14:30:12.120Z,94511.45
2019-05-02T14:32:37.575Z,94531.44
2019-05-02T14:35:03.620Z,94533.41
2019-05-02T14:37:29.622Z,94523.98
2019-05-02T14:39:55.649Z,94533.31
2019-05-02T14:42:25.969Z,94533.19
2019-05-02T14:45:04.033Z,94534.23
2019-05-02T14:47:17.737Z,94533.60
2019-05-02T14:49:39.740Z,94526.43
2019-05-02T14:52:07.106Z,94530.84
2019-05-02T14:54:32.411Z,94522.30
2019-05-02T14:56:57.995Z,94525.19
2019-05-02T14:59:24.048Z,94530.30
2019-05-02T15:01:50.074Z,94532.56
2019-05-02T15:04:16.190Z,94543.95
2019-05-02T15:06:45.456Z,94539.83
2019-05-02T15:09:08.220Z,94547.31
2019-05-02T15:11:34.985Z,94533.67
2019-05-02T15:14:00.249Z,94545.35
2019-05-02T15:16:39.370Z,94537.98
2019-05-02T15:18:56.658Z,94537.23
2019-05-02T15:21:18.444Z,94546.47
2019-05-02T15:23:44.460Z,94545.23
2019-05-02T15:26:13.707Z,94549.95
2019-05-02T15:28:37.817Z,94552.63
2019-05-02T15:31:04.843Z,94546.75
2019-05-02T15:33:28.536Z,94548.09
2019-05-02T15:35:57.242Z,94550.66
2019-05-02T15:38:25.585Z,94550.24
2019-05-02T15:40:50.503Z,94548.91
2019-05-02T15:43:12.709Z,94541.74
2019-05-02T15:45:42.013Z,94543.23
2019-05-02T15:48:04.690Z,94546.31
2019-05-02T15:50:32.530Z,94540.98
2019-05-02T15:52:57.282Z,94539.14
2019-05-02T15:55:22.745Z,94540.57
2019-05-02T15:57:49.422Z,94545.69
2019-05-02T16:00:21.939Z,94543.43
2019-05-02T16:02:42.024Z,94545.46
2019-05-02T16:05:06.804Z,94543.75
2019-05-02T16:07:32.837Z,94547.53
2019-05-02T16:10:01.200Z,94545.78
2019-05-02T16:12:27.112Z,94542.20
2019-05-02T16:14:52.664Z,94548.32
2019-05-02T16:17:17.703Z,94538.58
2019-05-02T16:19:42.960Z,94540.73
2019-05-02T16:22:08.961Z,94542.07
2019-05-02T16:24:35.086Z,94546.89
2019-05-02T16:27:01.653Z,94551.41
2019-05-02T16:29:28.862Z,94553.56
2019-05-02T16:31:54.905Z,94552.86
2019-05-02T16:34:19.151Z,94555.20
2019-05-02T16:36:45.206Z,94555.62
2019-05-02T16:39:13.289Z,94553.30
2019-05-02T16:41:41.285Z,94551.02
2019-05-02T16:44:03.213Z,94559.97
2019-05-02T16:46:29.268Z,94560.88
2019-05-02T16:48:55.301Z,94562.72
2019-05-02T16:51:30.515Z,94569.89
2019-05-02T16:53:47.343Z,94566.44
2019-05-02T16:56:13.367Z,94570.94
2019-05-02T16:58:43.456Z,94573.52
2019-05-02T17:01:05.401Z,94575.77
2019-05-02T17:03:31.705Z,94573.89
2019-05-02T17:05:57.422Z,94582.84
2019-05-02T17:08:23.554Z,94585.09
2019-05-02T17:10:55.123Z,94597.73
2019-05-02T17:13:15.583Z,94592.07
2019-05-02T17:15:42.758Z,94596.20
2019-05-02T17:18:18.124Z,94600.61
2019-05-02T17:20:33.596Z,94599.66
2019-05-02T17:23:05.216Z,94606.33
2019-05-02T17:25:25.830Z,94604.48
2019-05-02T17:27:55.457Z,94612.07
2019-05-02T17:30:17.835Z,94614.86
2019-05-02T17:32:43.871Z,94618.44
2019-05-02T17:35:11.578Z,94624.28
2019-05-02T17:37:40.600Z,94621.33
2019-05-02T17:40:01.946Z,94621.33
2019-05-02T17:42:27.959Z,94622.53
2019-05-02T17:44:59.335Z,94625.55
2019-05-02T17:47:19.994Z,94623.38
2019-05-02T17:49:46.001Z,94624.84
2019-05-02T17:52:19.745Z,94625.34
2019-05-02T17:54:38.080Z,94628.02
2019-05-02T17:57:04.105Z,94632.13
2019-05-02T17:59:34.720Z,94627.31
2019-05-02T18:01:56.122Z,94624.73
2019-05-02T18:04:22.235Z,94628.32
2019-05-02T18:06:53.651Z,94635.40
2019-05-02T18:09:15.621Z,94635.52
2019-05-02T18:11:42.286Z,94638.19
2019-05-02T18:14:16.090Z,94642.28
2019-05-02T18:16:32.449Z,94646.41
2019-05-02T18:18:58.361Z,94650.40
2019-05-02T18:21:27.206Z,94649.28
2019-05-02T18:23:52.036Z,94655.03
2019-05-02T18:26:16.393Z,94652.23
2019-05-02T18:28:48.947Z,94652.45
2019-05-02T18:31:08.414Z,94664.73
2019-05-02T18:33:35.912Z,94659.63
2019-05-02T18:36:01.927Z,94665.56
2019-05-02T18:38:26.491Z,94663.41
2019-05-02T18:40:55.176Z,94675.11
2019-05-02T18:43:18.536Z,94678.80
2019-05-02T18:45:44.534Z,94670.48
2019-05-02T18:48:12.577Z,94677.98
2019-05-02T18:50:41.783Z,94678.48
2019-05-02T18:53:03.557Z,94688.73
2019-05-02T18:55:29.193Z,94695.01
2019-05-02T18:57:57.135Z,94696.34
2019-05-02T19:00:22.918Z,94699.30
2019-05-02T19:02:47.416Z,94697.97
2019-05-02T19:05:19.071Z,94712.21
2019-05-02T19:07:39.470Z,94707.30
2019-05-02T19:10:07.234Z,94707.50
2019-05-02T19:12:32.757Z,94706.16
2019-05-02T19:15:02.505Z,94707.70
2019-05-02T19:17:23.563Z,94709.55
2019-05-02T19:19:49.560Z,94713.84
2019-05-02T19:22:17.022Z,94717.02
2019-05-02T19:24:41.924Z,94720.20
2019-05-02T19:27:07.610Z,94718.16
2019-05-02T19:29:33.675Z,94715.37
2019-05-02T19:31:59.676Z,94714.86
2019-05-02T19:34:26.953Z,94718.77
2019-05-02T19:36:52.920Z,94715.37
2019-05-02T19:39:17.808Z,94714.86
2019-05-02T19:41:45.402Z,94716.70
2019-05-02T19:44:09.985Z,94719.78
2019-05-02T19:46:38.853Z,94719.15
2019-05-02T19:49:02.208Z,94719.06
2019-05-02T19:51:28.249Z,94722.02
2019-05-02T19:53:59.532Z,94721.09
2019-05-02T19:56:21.873Z,94725.09
2019-05-02T19:58:46.723Z,94722.14
2019-05-02T20:01:12.688Z,94723.06
2019-05-02T20:03:38.125Z,94726.14
2019-05-02T20:06:06.196Z,94722.64
2019-05-02T20:08:32.638Z,94733.81
2019-05-02T20:10:58.422Z,94733.43
2019-05-02T20:13:28.286Z,94733.02
2019-05-02T20:15:49.227Z,94736.19
2019-05-02T20:18:15.271Z,94732.28
2019-05-02T20:20:41.927Z,94734.16
2019-05-02T20:23:15.437Z,94733.32
2019-05-02T20:25:37.498Z,94729.33
2019-05-02T20:28:01.950Z,94729.83
2019-05-02T20:30:26.681Z,94730.37
2019-05-02T20:32:52.672Z,94726.87
2019-05-02T20:35:18.681Z,94730.05
2019-05-02T20:37:44.760Z,94728.20
2019-05-02T20:40:11.963Z,94723.80
2019-05-02T20:42:36.828Z,94723.09
2019-05-02T20:45:02.838Z,94730.26
2019-05-02T20:47:28.880Z,94726.26
2019-05-02T20:49:54.881Z,94728.42
2019-05-02T20:52:21.741Z,94723.21
2019-05-02T20:54:46.912Z,94727.72
2019-05-02T20:57:12.904Z,94730.80
2019-05-02T20:59:38.931Z,94725.97
2019-05-02T21:02:04.933Z,94727.42
2019-05-02T21:04:31.879Z,94718.19
2019-05-02T21:06:56.952Z,94722.31
2019-05-02T21:09:22.971Z,94721.89
2019-05-02T21:11:48.963Z,94720.66
2019-05-02T21:14:14.973Z,94724.14
2019-05-02T21:16:40.992Z,94726.39
2019-05-02T21:19:06.996Z,94733.56
2019-05-02T21:21:33.015Z,94733.98
2019-05-02T21:23:59.011Z,94738.52
2019-05-02T21:26:25.026Z,94736.35
2019-05-02T21:28:52.172Z,94738.60
2019-05-02T21:31:17.076Z,94740.06
2019-05-02T21:33:43.085Z,94742.19
2019-05-02T21:36:09.083Z,94746.81
2019-05-02T21:38:35.104Z,94747.23
2019-05-02T21:41:01.113Z,94755.64
2019-05-02T21:43:27.115Z,94750.30
2019-05-02T21:45:53.135Z,94754.81
2019-05-02T21:48:19.136Z,94754.93
2019-05-02T21:50:45.157Z,94755.44
2019-05-02T21:53:12.704Z,94756.77
2019-05-02T21:55:37.175Z,94760.77
2019-05-02T21:58:03.206Z,94763.52
2019-05-02T22:00:29.193Z,94764.34
2019-05-02T22:02:55.237Z,94762.19
2019-05-02T22:05:22.220Z,94765.80
2019-05-02T22:07:47.277Z,94764.56
2019-05-02T22:10:13.311Z,94770.31
2019-05-02T22:12:39.314Z,94768.14
2019-05-02T22:15:05.437Z,94773.89
2019-05-02T22:17:32.234Z,94774.39
2019-05-02T22:19:57.463Z,94775.34
2019-05-02T22:22:23.455Z,94776.35
2019-05-02T22:24:49.477Z,94776.77
2019-05-02T22:27:15.469Z,94773.69
2019-05-02T22:29:43.001Z,94774.61
2019-05-02T22:32:07.498Z,94776.77
2019-05-02T22:34:33.503Z,94772.45
2019-05-02T22:36:59.521Z,94775.56
2019-05-02T22:39:25.519Z,94768.89
2019-05-02T22:41:52.624Z,94773.36
2019-05-02T22:44:17.539Z,94764.03
2019-05-02T22:46:43.721Z,94770.79
2019-05-02T22:49:11.545Z,94774.78
2019-05-02T22:51:35.547Z,94774.41
2019-05-02T22:54:02.910Z,94771.73
2019-05-02T22:56:27.564Z,94770.28
2019-05-02T22:58:53.581Z,94762.09
2019-05-02T23:01:21.537Z,94760.66
2019-05-02T23:03:45.591Z,94760.25
2019-05-02T23:06:12.510Z,94761.17
2019-05-02T23:08:37.608Z,94755.84
2019-05-02T23:11:03.611Z,94761.17
2019-05-02T23:13:31.820Z,94764.87
2019-05-02T23:15:55.633Z,94767.92
2019-05-02T23:18:22.778Z,94766.59
2019-05-02T23:20:47.630Z,94760.88
2019-05-02T23:23:13.653Z,94760.05
2019-05-02T23:25:39.649Z,94763.13
2019-05-02T23:28:05.661Z,94760.46
2019-05-02T23:30:31.850Z,94759.22
2019-05-02T23:32:57.671Z,94750.31
2019-05-02T23:35:23.692Z,94759.64
2019-05-02T23:37:49.685Z,94758.42
2019-05-02T23:40:15.715Z,94755.34
2019-05-02T23:42:41.814Z,94757.89
2019-05-02T23:45:07.723Z,94756.55
2019-05-02T23:47:33.719Z,94762.42
2019-05-02T23:49:59.718Z,94754.81
2019-05-02T23:52:25.739Z,94759.44
2019-05-02T23:54:52.417Z,94761.09
2019-05-02T23:57:17.756Z,94758.52
2019-05-02T23:59:43.746Z,94757.30
